Time;durP1;ratioP1;P1;durP2;ratioP2;P2;SDS_P1;SDS_P2;PMS_P1;PMS_P2;Temp;Humidity;BMP_temperature;BMP_pressure;BME280_temperature;BME280_humidity;BME280_pressure;Samples;Min_cycle;Max_cycle;Signal;HPM_P1;HPM_P2
2023/06/04 00:01:27;;;;;;;14.83;6.87;;;;;;;-143.84;89.97;43754.47;5112775;28;21026;-57
2023/06/04 00:03:54;;;;;;;13.67;7.20;;;;;;;-143.84;90.06;43733.53;5112754;28;20446;-57
2023/06/04 00:06:21;;;;;;;11.40;7.20;;;;;;;-143.84;90.15;43746.88;5112928;28;20434;-57
2023/06/04 00:08:49;;;;;;;8.30;6.90;;;;;;;-143.84;90.20;43722.13;5112773;28;20939;-57
2023/06/04 00:11:16;;;;;;;11.80;7.37;;;;;;;-143.84;90.07;43743.06;5112827;28;20432;-57
2023/06/04 00:13:44;;;;;;;18.33;7.50;;;;;;;-143.84;90.10;43779.22;5112527;28;21037;-57
2023/06/04 00:16:11;;;;;;;11.13;7.10;;;;;;;-143.84;90.18;43758.28;5112219;28;20520;-58
2023/06/04 00:18:38;;;;;;;8.70;6.57;;;;;;;-143.84;89.75;43733.53;5112726;28;20491;-58
2023/06/04 00:21:05;;;;;;;14.03;7.67;;;;;;;-143.84;89.81;43754.47;5112731;28;20555;-57
2023/06/04 00:23:33;;;;;;;9.60;7.27;;;;;;;-143.84;89.64;43731.66;5112604;28;20435;-57
2023/06/04 00:26:00;;;;;;;10.63;6.90;;;;;;;-143.84;89.46;43777.31;5112427;28;20439;-57
2023/06/04 00:28:27;;;;;;;7.07;6.37;;;;;;;-143.84;89.31;43773.53;5112443;28;20437;-57
2023/06/04 00:30:55;;;;;;;10.00;7.03;;;;;;;-143.84;89.44;43783.03;5112549;28;20915;-57
2023/06/04 00:33:22;;;;;;;11.80;7.17;;;;;;;-143.84;89.40;43788.75;5112407;28;20434;-57
2023/06/04 00:35:49;;;;;;;12.97;7.83;;;;;;;-143.84;89.52;43758.28;5112313;28;20442;-57
2023/06/04 00:38:17;;;;;;;9.73;7.43;;;;;;;-143.84;89.73;43756.38;5112224;28;20504;-57
2023/06/04 00:40:44;;;;;;;9.60;8.17;;;;;;;-143.84;89.81;43760.19;5112348;28;20484;-57
2023/06/04 00:43:13;;;;;;;9.47;6.87;;;;;;;-143.84;89.54;43769.72;5112125;28;20440;-58
2023/06/04 00:45:40;;;;;;;9.40;6.67;;;;;;;-143.84;89.85;43773.53;5111263;28;20442;-57
2023/06/04 00:48:09;;;;;;;13.80;7.40;;;;;;;-143.84;89.84;43779.22;5112404;28;20448;-57
2023/06/04 00:50:38;;;;;;;10.13;6.40;;;;;;;-143.84;89.53;43758.28;5112076;28;20503;-57
2023/06/04 00:53:06;;;;;;;9.60;6.67;;;;;;;-143.84;89.01;43817.31;5112372;28;20611;-57
2023/06/04 00:55:33;;;;;;;7.90;5.77;;;;;;;-143.84;88.27;43889.63;5112050;28;20440;-57
2023/06/04 00:58:00;;;;;;;9.30;6.23;;;;;;;-143.84;88.10;43923.91;5112159;28;20447;-57
2023/06/04 01:00:28;;;;;;;10.23;6.70;;;;;;;-143.84;87.94;43914.38;5111937;28;20529;-57
2023/06/04 01:02:58;;;;;;;12.43;7.40;;;;;;;-143.84;88.70;43887.72;5111915;28;20856;-57
2023/06/04 01:05:34;;;;;;;9.87;6.63;;;;;;;-143.84;88.84;43857.28;5111458;28;20835;-57
2023/06/04 01:08:02;;;;;;;8.77;6.70;;;;;;;-143.84;89.25;43832.53;5111877;28;20522;-57
2023/06/04 01:10:29;;;;;;;6.50;5.90;;;;;;;-143.84;89.53;43830.63;5111511;28;20962;-57
2023/06/04 01:12:56;;;;;;;14.83;7.10;;;;;;;-143.84;89.37;43813.50;5111478;28;20448;-57
2023/06/04 01:15:24;;;;;;;10.40;6.83;;;;;;;-143.84;88.97;43834.44;5111131;28;20485;-57
2023/06/04 01:18:02;;;;;;;9.80;6.23;;;;;;;-143.84;88.75;43868.69;5111776;28;20438;-57
2023/06/04 01:20:36;;;;;;;13.07;6.30;;;;;;;-143.84;88.73;43912.47;5111600;28;21035;-57
2023/06/04 01:23:28;;;;;;;12.23;6.73;;;;;;;-143.84;88.53;43906.75;5111301;28;20545;-57
2023/06/04 01:25:57;;;;;;;7.70;5.40;;;;;;;-143.84;88.39;43918.19;5111725;28;20449;-57
2023/06/04 01:28:24;;;;;;;9.20;5.77;;;;;;;-143.84;88.44;43925.78;5111321;28;20442;-57
2023/06/04 01:30:52;;;;;;;7.20;5.83;;;;;;;-143.84;87.82;43996.22;5111302;28;20446;-57
2023/06/04 01:33:20;;;;;;;13.07;5.83;;;;;;;-143.84;87.93;44013.38;5111238;28;20450;-57
2023/06/04 01:35:49;;;;;;;13.63;6.50;;;;;;;-143.84;87.98;43998.13;5111642;28;20438;-57
2023/06/04 01:38:16;;;;;;;18.00;6.77;;;;;;;-143.84;88.05;43990.53;5098121;28;20449;-57
2023/06/04 01:40:43;;;;;;;8.83;5.70;;;;;;;-143.84;87.95;44040.00;5090595;28;20438;-57
2023/06/04 01:43:11;;;;;;;8.10;5.80;;;;;;;-143.84;87.94;44024.78;5090730;28;20499;-57
2023/06/04 01:45:38;;;;;;;9.10;6.47;;;;;;;-143.84;88.09;44011.47;5090346;28;20478;-57
2023/06/04 01:48:06;;;;;;;6.57;5.80;;;;;;;-143.84;88.13;44060.94;5090646;28;20510;-57
2023/06/04 01:50:33;;;;;;;12.53;5.90;;;;;;;-143.84;88.54;44001.94;5090591;28;20439;-57
2023/06/04 01:53:02;;;;;;;14.13;5.20;;;;;;;-143.84;87.95;44040.00;5090698;28;20445;-57
2023/06/04 01:55:33;;;;;;;13.33;5.63;;;;;;;-143.84;87.93;44066.66;5090370;28;20453;-57
2023/06/04 01:58:01;;;;;;;16.40;5.77;;;;;;;-143.84;87.70;44112.34;5090081;28;20450;-57
2023/06/04 02:00:28;;;;;;;22.47;6.80;;;;;;;-143.84;87.08;44243.69;5090545;28;20510;-57
2023/06/04 02:02:56;;;;;;;9.87;4.97;;;;;;;-143.84;87.37;44190.41;5090296;28;20477;-57
2023/06/04 02:05:24;;;;;;;7.50;5.40;;;;;;;-143.84;87.05;44253.22;5090267;28;21012;-57
2023/06/04 02:07:51;;;;;;;15.63;5.57;;;;;;;-143.84;87.03;44293.19;5090124;28;20449;-57
2023/06/04 02:10:20;;;;;;;23.40;6.27;;;;;;;-143.84;86.68;44369.34;5090295;28;20467;-57
2023/06/04 02:12:58;;;;;;;5.20;4.70;;;;;;;-143.84;86.61;44396.00;5090263;28;20441;-57
2023/06/04 02:15:27;;;;;;;10.23;4.77;;;;;;;-143.84;86.37;44434.09;5089572;28;20492;-57
2023/06/04 02:17:59;;;;;;;6.63;4.97;;;;;;;-143.84;86.36;44455.03;5089962;28;20436;-57
2023/06/04 02:20:26;;;;;;;10.57;5.20;;;;;;;-143.84;86.08;44504.53;5089721;28;20512;-57
2023/06/04 02:22:55;;;;;;;8.97;4.60;;;;;;;-143.84;85.66;44544.50;5090206;28;20894;-57
2023/06/04 02:25:24;;;;;;;14.57;4.60;;;;;;;-143.84;85.66;44548.31;5090083;28;20437;-57
2023/06/04 02:27:51;;;;;;;8.13;4.03;;;;;;;-143.84;85.94;44552.13;5089911;28;20441;-57
2023/06/04 02:30:18;;;;;;;8.60;4.70;;;;;;;-143.84;85.57;44632.09;5089790;28;20499;-57
2023/06/04 02:32:45;;;;;;;11.50;4.33;;;;;;;-143.84;85.42;44609.22;5089910;28;20507;-57
2023/06/04 02:35:12;;;;;;;9.40;4.77;;;;;;;-143.84;85.64;44637.78;5089926;28;20441;-57
2023/06/04 02:37:40;;;;;;;7.63;3.73;;;;;;;-143.84;85.55;44603.53;5090060;28;20847;-57
2023/06/04 02:40:08;;;;;;;5.90;4.13;;;;;;;-143.84;85.55;44626.38;5089860;28;20561;-57
2023/06/04 02:42:37;;;;;;;6.90;4.17;;;;;;;-143.84;85.82;44634.00;5089741;28;21003;-57
2023/06/04 02:45:05;;;;;;;11.70;4.30;;;;;;;-143.84;85.64;44645.41;5089634;28;20516;-57
2023/06/04 02:47:32;;;;;;;6.50;4.00;;;;;;;-143.84;85.66;44662.53;5089425;28;20946;-57
2023/06/04 02:49:59;;;;;;;8.20;4.90;;;;;;;-143.84;85.62;44689.19;5089267;28;20460;-57
2023/06/04 02:52:26;;;;;;;6.90;4.60;;;;;;;-143.84;85.44;44647.31;5089648;28;20470;-57
2023/06/04 02:54:53;;;;;;;5.97;4.83;;;;;;;-143.84;85.35;44710.16;5089214;28;20441;-57
2023/06/04 02:57:20;;;;;;;10.37;5.00;;;;;;;-143.84;85.10;44721.56;5089292;28;20837;-57
2023/06/04 02:59:49;;;;;;;5.53;4.20;;;;;;;-143.84;84.94;44746.31;5089671;28;20436;-57
2023/06/04 03:02:16;;;;;;;9.07;4.87;;;;;;;-143.84;84.60;44744.41;5089119;28;20534;-57
2023/06/04 03:04:44;;;;;;;11.77;4.90;;;;;;;-143.84;84.51;44772.97;5089444;28;21302;-57
2023/06/04 03:07:13;;;;;;;7.93;4.17;;;;;;;-143.84;84.38;44776.78;5089134;28;20453;-57
2023/06/04 03:09:40;;;;;;;13.03;4.10;;;;;;;-143.84;84.23;44811.06;5088643;28;20497;-57
2023/06/04 03:12:08;;;;;;;4.87;3.73;;;;;;;-143.84;84.22;44822.47;5088804;28;20550;-57
2023/06/04 03:14:35;;;;;;;6.80;4.50;;;;;;;-143.84;84.23;44805.34;5088713;28;20541;-57
2023/06/04 03:17:07;;;;;;;6.87;4.13;;;;;;;-143.84;84.34;44793.91;5089136;28;20837;-57
2023/06/04 03:19:36;;;;;;;12.80;5.27;;;;;;;-143.84;84.22;44824.38;5108289;28;20506;-57
2023/06/04 03:22:05;;;;;;;5.07;4.07;;;;;;;-143.84;84.27;44818.66;5109284;28;20480;-57
2023/06/04 03:24:36;;;;;;;8.43;3.97;;;;;;;-143.84;83.95;44839.63;5109537;28;20458;-57
2023/06/04 03:27:03;;;;;;;10.77;4.77;;;;;;;-143.84;83.86;44845.31;5109204;28;20936;-57
2023/06/04 03:29:31;;;;;;;11.50;4.30;;;;;;;-143.84;83.84;44852.94;5109578;28;20445;-57
2023/06/04 03:31:59;;;;;;;6.77;4.60;;;;;;;-143.84;83.79;44839.63;5109153;28;20444;-57
2023/06/04 03:34:27;;;;;;;6.77;4.90;;;;;;;-143.84;83.39;44875.78;5109322;28;20440;-57
2023/06/04 03:36:55;;;;;;;7.23;5.37;;;;;;;-143.84;83.24;44866.28;5109048;28;20441;-57
2023/06/04 03:39:23;;;;;;;6.80;4.30;;;;;;;-143.84;83.19;44871.97;5109020;28;20834;-57
2023/06/04 03:41:50;;;;;;;7.60;4.93;;;;;;;-143.84;83.53;44868.19;5109050;28;20488;-57
2023/06/04 03:44:18;;;;;;;10.47;4.60;;;;;;;-143.84;83.05;44891.03;5109086;28;20440;-57
2023/06/04 03:46:46;;;;;;;8.77;4.97;;;;;;;-143.84;82.52;44932.91;5108879;28;20446;-57
2023/06/04 03:49:17;;;;;;;6.20;4.70;;;;;;;-143.84;82.46;44913.88;5109195;28;20437;-57
2023/06/04 03:51:45;;;;;;;7.73;5.43;;;;;;;-143.84;81.33;44946.25;5109237;28;20527;-57
2023/06/04 03:54:16;;;;;;;9.63;5.00;;;;;;;-143.84;80.46;44971.00;5108821;28;20945;-57
2023/06/04 03:56:44;;;;;;;5.53;3.97;;;;;;;-143.84;80.05;44997.66;5109030;28;21060;-57
2023/06/04 03:59:11;;;;;;;9.50;4.50;;;;;;;-143.84;79.56;45012.88;5108919;28;20444;-57
2023/06/04 04:01:39;;;;;;;7.50;4.80;;;;;;;-143.84;79.56;45003.38;5108807;28;20476;-57
2023/06/04 04:04:06;;;;;;;8.87;4.53;;;;;;;-143.84;79.67;45007.19;5108925;28;20874;-57
2023/06/04 04:06:35;;;;;;;4.87;4.30;;;;;;;-143.84;79.64;44974.81;5109232;28;20436;-57
2023/06/04 04:09:04;;;;;;;8.13;4.43;;;;;;;-143.84;78.88;44999.56;5109250;28;20449;-57
2023/06/04 04:11:31;;;;;;;9.40;4.00;;;;;;;-143.84;77.97;44999.56;5108550;28;20471;-57
2023/06/04 04:13:58;;;;;;;9.20;4.37;;;;;;;-143.84;77.57;45016.69;5108257;28;20960;-57
2023/06/04 04:16:27;;;;;;;10.50;3.97;;;;;;;-143.84;75.85;45056.69;5102662;28;20453;-57
2023/06/04 04:18:54;;;;;;;4.73;3.30;;;;;;;-143.84;74.53;45037.66;5088578;28;20612;-56
2023/06/04 04:21:22;;;;;;;6.10;3.97;;;;;;;-143.84;74.03;45052.88;5091682;28;20435;-57
2023/06/04 04:23:51;;;;;;;9.23;3.20;;;;;;;-143.84;73.58;45056.69;5092369;28;20492;-57
2023/06/04 04:26:19;;;;;;;6.13;3.70;;;;;;;-143.84;72.90;45033.84;5092490;28;20447;-57
2023/06/04 04:28:46;;;;;;;4.63;3.93;;;;;;;-143.84;72.69;45033.84;5092010;28;20987;-57
2023/06/04 04:31:14;;;;;;;3.77;3.53;;;;;;;-143.84;72.45;45045.25;5091963;28;20458;-57
2023/06/04 04:33:41;;;;;;;4.13;3.10;;;;;;;-143.84;71.77;45049.06;5091915;28;20448;-57
2023/06/04 04:36:13;;;;;;;4.77;3.40;;;;;;;-143.84;71.16;45039.53;5091923;28;20926;-57
2023/06/04 04:38:40;;;;;;;6.77;3.63;;;;;;;-143.84;70.12;45033.84;5091924;28;20582;-57
2023/06/04 04:41:08;;;;;;;11.30;3.63;;;;;;;-143.84;69.05;45071.91;5091439;28;20436;-57
2023/06/04 04:43:39;;;;;;;6.57;3.47;;;;;;;-143.84;68.35;45068.13;5091615;28;20629;-57
2023/06/04 04:46:06;;;;;;;4.13;3.27;;;;;;;-143.84;66.63;45073.81;5091383;28;20455;-57
2023/06/04 04:48:33;;;;;;;9.63;3.23;;;;;;;-143.84;66.09;45049.06;5092015;28;20519;-57
2023/06/04 04:51:00;;;;;;;4.23;2.97;;;;;;;-143.84;64.62;45045.25;5091772;28;20506;-57
2023/06/04 04:53:28;;;;;;;9.47;2.60;;;;;;;-143.84;63.40;45075.72;5091787;28;20441;-57
2023/06/04 04:55:55;;;;;;;3.53;2.77;;;;;;;-143.84;61.78;45043.34;5091935;28;20439;-57
2023/06/04 04:58:22;;;;;;;6.87;2.53;;;;;;;-143.84;60.71;45047.16;5092077;28;20432;-57
2023/06/04 05:00:51;;;;;;;11.13;3.07;;;;;;;-143.84;60.26;45039.53;5091865;28;21226;-57
2023/06/04 05:03:18;;;;;;;9.03;2.67;;;;;;;-143.84;59.93;45037.66;5091457;28;20477;-57
2023/06/04 05:05:45;;;;;;;6.70;2.93;;;;;;;-143.84;59.04;45031.94;5091408;28;20941;-57
2023/06/04 05:08:12;;;;;;;4.07;2.80;;;;;;;-143.84;58.39;45064.31;5091220;28;20447;-57
2023/06/04 05:10:40;;;;;;;7.47;2.87;;;;;;;-143.84;58.68;45018.59;5091442;28;20938;-57
2023/06/04 05:13:07;;;;;;;6.53;3.00;;;;;;;-143.84;58.50;45052.88;5090828;28;20456;-57
2023/06/04 05:15:34;;;;;;;5.97;2.50;;;;;;;-143.84;58.79;45041.44;5090941;28;20479;-57
2023/06/04 05:18:03;;;;;;;9.47;2.60;;;;;;;-143.84;59.87;45039.53;5091192;28;20498;-57
2023/06/04 05:20:30;;;;;;;5.70;2.67;;;;;;;-143.84;59.52;45056.69;5090953;28;20440;-57
2023/06/04 05:22:58;;;;;;;9.50;3.33;;;;;;;-143.84;59.39;45039.53;5090853;28;21347;-57
2023/06/04 05:25:26;;;;;;;6.30;2.23;;;;;;;-143.84;57.77;45056.69;5091221;28;20433;-57
2023/06/04 05:27:54;;;;;;;18.77;3.60;;;;;;;-143.84;57.67;45039.53;5090768;28;20441;-57
2023/06/04 05:30:21;;;;;;;9.00;2.77;;;;;;;-143.84;55.48;45028.13;5091430;28;20726;-57
2023/06/04 05:32:50;;;;;;;7.40;2.90;;;;;;;-143.84;54.20;45052.88;5090283;28;20525;-57
2023/06/04 05:35:19;;;;;;;14.03;2.23;;;;;;;-143.84;51.60;45022.41;5090675;28;21325;-57
2023/06/04 05:37:53;;;;;;;6.10;2.40;;;;;;;-143.84;51.20;45039.53;5090755;28;20512;-57
2023/06/04 05:40:21;;;;;;;4.77;2.20;;;;;;;-143.84;51.14;45007.19;5090671;28;20477;-57
2023/06/04 05:42:49;;;;;;;4.40;1.97;;;;;;;-143.84;49.21;45033.84;5090593;28;20996;-57
2023/06/04 05:45:16;;;;;;;6.60;2.30;;;;;;;-143.84;49.34;45041.44;5090694;28;20436;-57
2023/06/04 05:47:44;;;;;;;4.10;2.37;;;;;;;-143.84;48.46;45026.22;5090185;28;21299;-57
2023/06/04 05:50:11;;;;;;;8.37;2.10;;;;;;;-143.84;48.88;45028.13;5090004;28;20443;-57
2023/06/04 05:52:39;;;;;;;8.07;2.10;;;;;;;-143.84;48.11;45026.22;5090461;28;21365;-57
2023/06/04 05:55:08;;;;;;;12.80;2.10;;;;;;;-143.84;47.52;45024.31;5089777;28;20964;-57
2023/06/04 05:57:36;;;;;;;16.63;2.83;;;;;;;-143.84;45.33;45007.19;5090114;28;20440;-57
2023/06/04 06:00:06;;;;;;;5.20;2.37;;;;;;;-143.84;45.74;45012.88;5090306;28;20501;-57
2023/06/04 06:02:34;;;;;;;11.60;2.70;;;;;;;-143.84;45.13;45024.31;5090361;28;20897;-57
2023/06/04 06:05:01;;;;;;;5.30;2.50;;;;;;;-143.84;44.11;45018.59;5090158;28;20689;-57
2023/06/04 06:07:28;;;;;;;8.37;2.40;;;;;;;-143.84;43.20;45007.19;5089990;28;21001;-57
2023/06/04 06:09:57;;;;;;;5.17;2.00;;;;;;;-143.84;42.91;45020.50;5090153;28;20989;-57
2023/06/04 06:12:24;;;;;;;4.93;2.87;;;;;;;-143.84;42.30;45012.88;5090029;28;20469;-57
2023/06/04 06:14:51;;;;;;;13.30;2.37;;;;;;;-143.84;41.88;45018.59;5089735;28;20482;-57
2023/06/04 06:17:18;;;;;;;5.60;2.23;;;;;;;-143.84;42.39;45007.19;5089708;28;20480;-57
2023/06/04 06:19:45;;;;;;;7.80;2.20;;;;;;;-143.84;41.94;45039.53;5089823;28;20511;-57
2023/06/04 06:22:13;;;;;;;6.10;2.47;;;;;;;-143.84;41.45;44974.81;5089759;28;21002;-56
2023/06/04 06:24:40;;;;;;;12.03;2.53;;;;;;;-143.84;41.97;45007.19;5089861;28;20505;-57
2023/06/04 06:27:09;;;;;;;4.57;2.60;;;;;;;-143.84;41.82;44986.22;5089730;28;20454;-57
2023/06/04 06:29:36;;;;;;;11.20;1.90;;;;;;;-143.84;41.65;44999.56;5089728;28;20549;-57
2023/06/04 06:32:04;;;;;;;3.07;2.00;;;;;;;-143.84;41.16;44991.94;5089741;28;20448;-57
2023/06/04 06:34:31;;;;;;;8.40;1.90;;;;;;;-143.84;40.52;44969.09;5089426;28;20473;-57
2023/06/04 06:36:58;;;;;;;10.43;2.47;;;;;;;-143.84;40.07;44974.81;5089616;28;20451;-57
2023/06/04 06:39:25;;;;;;;11.90;2.80;;;;;;;-143.84;40.66;44988.13;5089573;28;20440;-57
2023/06/04 06:41:52;;;;;;;7.77;2.90;;;;;;;-143.84;40.79;44990.03;5089526;28;21002;-57
2023/06/04 06:44:21;;;;;;;7.43;3.00;;;;;;;-143.84;40.14;44976.72;5088612;28;21057;-57
2023/06/04 06:46:48;;;;;;;18.30;2.80;;;;;;;-143.84;39.80;44974.81;5089501;28;20455;-57
2023/06/04 06:49:15;;;;;;;6.13;2.70;;;;;;;-143.84;40.04;44972.91;5089292;28;20923;-57
2023/06/04 06:51:42;;;;;;;10.10;2.50;;;;;;;-143.84;40.35;44990.03;5088206;28;20451;-57
2023/06/04 06:54:10;;;;;;;11.40;2.23;;;;;;;-143.84;40.69;44972.91;5087964;28;20428;-56
2023/06/04 06:56:37;;;;;;;6.30;2.63;;;;;;;-143.84;41.13;44986.22;5088124;28;20976;-57
2023/06/04 06:59:04;;;;;;;5.80;2.40;;;;;;;-143.84;41.68;44972.91;5088175;28;20490;-57
2023/06/04 07:01:33;;;;;;;10.93;3.20;;;;;;;-143.84;40.95;44997.66;5088121;28;20443;-57
2023/06/04 07:04:00;;;;;;;6.53;2.43;;;;;;;-143.84;40.66;44990.03;5087970;28;20476;-56
2023/06/04 07:06:27;;;;;;;7.20;2.53;;;;;;;-143.84;40.11;44980.53;5089193;28;20432;-57
2023/06/04 07:08:55;;;;;;;6.17;2.47;;;;;;;-143.84;41.47;44986.22;5089231;28;20509;-57
2023/06/04 07:11:22;;;;;;;6.93;2.37;;;;;;;-143.84;40.69;44950.06;5089265;28;20539;-57
2023/06/04 07:13:49;;;;;;;6.57;3.00;;;;;;;-143.84;40.06;44997.66;5089031;28;20444;-57
2023/06/04 07:16:17;;;;;;;12.87;3.13;;;;;;;-143.84;39.80;44988.13;5101670;28;20502;-57
2023/06/04 07:18:48;;;;;;;7.77;2.47;;;;;;;-143.84;39.64;44972.91;5109290;28;20569;-57
2023/06/04 07:21:15;;;;;;;14.30;2.73;;;;;;;-143.84;38.78;44991.94;5109091;28;20478;-57
2023/06/04 07:23:45;;;;;;;6.33;2.70;;;;;;;-143.84;39.00;44988.13;5109814;28;21273;-60
2023/06/04 07:26:12;;;;;;;14.03;3.20;;;;;;;-143.84;38.85;44961.47;5109530;28;20812;-60
2023/06/04 07:28:39;;;;;;;6.93;2.77;;;;;;;-143.84;39.92;44991.94;5109103;28;20945;-60
2023/06/04 07:31:06;;;;;;;11.00;2.87;;;;;;;-143.84;39.77;44984.31;5109553;28;20464;-60
2023/06/04 07:33:34;;;;;;;10.63;3.23;;;;;;;-143.84;39.96;44971.00;5109176;28;20448;-60
2023/06/04 07:36:02;;;;;;;8.40;2.83;;;;;;;-143.84;40.08;44982.41;5109511;28;20435;-60
2023/06/04 07:38:29;;;;;;;13.80;2.97;;;;;;;-143.84;39.97;44982.41;5109275;28;20436;-60
2023/06/04 07:40:56;;;;;;;9.63;2.90;;;;;;;-143.84;38.39;44955.75;5109211;28;20439;-60
2023/06/04 07:43:24;;;;;;;7.93;3.17;;;;;;;-143.84;37.65;44988.13;5109032;28;21012;-60
2023/06/04 07:45:51;;;;;;;11.33;5.40;;;;;;;-143.84;38.81;44957.66;5109162;28;20447;-57
2023/06/04 07:48:18;;;;;;;9.73;3.57;;;;;;;-143.84;38.04;44971.00;5108974;28;20447;-57
2023/06/04 07:50:45;;;;;;;7.83;3.10;;;;;;;-143.84;38.10;44953.88;5109123;28;20855;-57
2023/06/04 07:53:13;;;;;;;8.50;3.10;;;;;;;-143.84;37.36;44986.22;5108919;28;20449;-57
2023/06/04 07:55:41;;;;;;;7.50;3.07;;;;;;;-143.84;37.41;44967.19;5111390;28;20447;-57
2023/06/04 07:58:08;;;;;;;8.63;2.87;;;;;;;-143.84;37.24;44988.13;5113322;28;20488;-57
2023/06/04 08:00:35;;;;;;;5.00;2.60;;;;;;;-143.84;37.13;44984.31;5112744;28;20945;-57
2023/06/04 08:03:02;;;;;;;6.00;3.37;;;;;;;-143.84;37.86;44948.16;5112833;28;20479;-57
2023/06/04 08:05:29;;;;;;;7.23;3.53;;;;;;;-143.84;37.43;44971.00;5112831;28;20492;-57
2023/06/04 08:07:56;;;;;;;11.63;2.57;;;;;;;-143.84;37.75;44984.31;5112953;28;20970;-57
2023/06/04 08:10:25;;;;;;;6.43;2.60;;;;;;;-143.84;38.59;44978.63;5112758;28;20505;-57
2023/06/04 08:12:52;;;;;;;11.63;2.80;;;;;;;-143.84;38.68;44988.13;5112536;28;20962;-57
2023/06/04 08:15:19;;;;;;;7.60;2.97;;;;;;;-143.84;39.23;44993.84;5111415;28;20483;-54
2023/06/04 08:17:46;;;;;;;7.80;2.20;;;;;;;-143.84;38.98;44999.56;5112123;28;20523;-54
2023/06/04 08:20:13;;;;;;;11.57;2.43;;;;;;;-143.84;38.64;45005.28;5112171;28;20443;-54
2023/06/04 08:22:41;;;;;;;3.77;3.10;;;;;;;-143.84;38.92;45007.19;5111672;28;20438;-54
2023/06/04 08:25:09;;;;;;;3.87;2.63;;;;;;;-143.84;39.69;44999.56;5111936;28;20979;-54
2023/06/04 08:27:38;;;;;;;11.10;3.23;;;;;;;-143.84;40.80;44972.91;5112011;28;20584;-54
2023/06/04 08:30:07;;;;;;;6.30;2.27;;;;;;;-143.84;39.18;44986.22;5110963;28;20443;-54
2023/06/04 08:32:34;;;;;;;15.50;2.60;;;;;;;-143.84;39.80;44982.41;5111009;28;20976;-54
2023/06/04 08:35:01;;;;;;;6.80;2.00;;;;;;;-143.84;39.77;44976.72;5110963;28;20443;-54
2023/06/04 08:37:28;;;;;;;4.67;2.30;;;;;;;-143.84;40.36;44978.63;5110853;28;20446;-54
2023/06/04 08:39:55;;;;;;;5.57;3.30;;;;;;;-143.84;40.97;44991.94;5110762;28;20444;-54
2023/06/04 08:42:28;;;;;;;5.40;3.27;;;;;;;-143.84;40.70;45005.28;5110882;28;21158;-54
2023/06/04 08:44:58;;;;;;;13.80;3.40;;;;;;;-143.84;41.24;44974.81;5112050;28;20494;-54
2023/06/04 08:47:26;;;;;;;9.40;3.30;;;;;;;-143.84;41.18;44980.53;5112144;28;20504;-54
2023/06/04 08:49:56;;;;;;;13.50;2.83;;;;;;;-143.84;41.31;45003.38;5112156;28;20435;-54
2023/06/04 08:52:24;;;;;;;8.10;2.50;;;;;;;-143.84;40.40;44980.53;5112270;28;20461;-54
2023/06/04 08:54:53;;;;;;;6.60;2.57;;;;;;;-143.84;41.14;44991.94;5112141;28;20499;-54
2023/06/04 08:57:20;;;;;;;5.27;2.30;;;;;;;-143.84;40.83;44986.22;5112069;28;20440;-54
2023/06/04 08:59:48;;;;;;;10.10;2.87;;;;;;;-143.84;41.18;44976.72;5111797;28;20450;-54
2023/06/04 09:02:18;;;;;;;12.50;2.50;;;;;;;-143.84;40.46;45010.97;5111367;28;20821;-54
2023/06/04 09:04:45;;;;;;;8.30;2.70;;;;;;;-143.84;39.99;44984.31;5111544;28;20479;-54
2023/06/04 09:07:14;;;;;;;4.63;2.50;;;;;;;-143.84;40.29;45007.19;5110559;28;20438;-54
2023/06/04 09:09:43;;;;;;;8.87;2.60;;;;;;;-143.84;41.41;44980.53;5111971;28;20503;-54
2023/06/04 09:12:12;;;;;;;9.97;2.80;;;;;;;-143.84;40.57;44982.41;5111541;28;20434;-54
2023/06/04 09:14:40;;;;;;;5.50;2.47;;;;;;;-143.84;42.06;44980.53;5111420;28;20537;-54
2023/06/04 09:17:07;;;;;;;4.20;2.27;;;;;;;-143.84;39.86;44990.03;5111349;28;20469;-54
2023/06/04 09:19:35;;;;;;;12.33;2.20;;;;;;;-143.84;39.86;44988.13;5110559;28;20455;-53
2023/06/04 09:22:03;;;;;;;3.00;1.90;;;;;;;-143.84;39.09;45014.78;5108742;28;20433;-54
2023/06/04 09:24:40;;;;;;;8.20;2.23;;;;;;;-143.84;39.70;45010.97;5110170;28;21018;-54
2023/06/04 09:27:12;;;;;;;5.50;2.73;;;;;;;-143.84;40.93;44997.66;5111028;28;20439;-54
2023/06/04 09:29:39;;;;;;;8.63;2.40;;;;;;;-143.84;38.61;44980.53;5111652;28;20440;-54
2023/06/04 09:32:06;;;;;;;4.07;1.80;;;;;;;-143.84;39.06;44986.22;5111335;28;20504;-53
2023/06/04 09:34:36;;;;;;;7.90;1.90;;;;;;;-143.84;38.71;44972.91;5111333;28;20435;-54
2023/06/04 09:37:03;;;;;;;16.63;2.27;;;;;;;-143.84;39.41;44988.13;5111215;28;20516;-54
2023/06/04 09:39:31;;;;;;;11.97;2.77;;;;;;;-143.84;38.99;44978.63;5111247;28;20463;-54
2023/06/04 09:42:01;;;;;;;8.20;2.47;;;;;;;-143.84;38.17;44984.31;5110939;28;20440;-54
2023/06/04 09:44:29;;;;;;;7.60;2.27;;;;;;;-143.84;38.46;44990.03;5110939;28;20486;-54
2023/06/04 09:46:57;;;;;;;5.83;1.90;;;;;;;-143.84;38.10;44993.84;5110976;28;20443;-54
2023/06/04 09:49:24;;;;;;;6.87;2.60;;;;;;;-143.84;38.75;44991.94;5111171;28;20880;-54
2023/06/04 09:51:52;;;;;;;4.43;2.30;;;;;;;-143.84;38.72;44978.63;5110870;28;20447;-54
2023/06/04 09:54:20;;;;;;;3.23;2.03;;;;;;;-143.84;40.23;44995.75;5110746;28;20447;-54
2023/06/04 09:56:47;;;;;;;11.57;2.93;;;;;;;-143.84;39.03;44965.28;5110592;28;20432;-54
2023/06/04 09:59:15;;;;;;;3.67;2.23;;;;;;;-143.84;39.73;44993.84;5110711;28;20448;-54
2023/06/04 10:01:42;;;;;;;13.30;2.23;;;;;;;-143.84;38.97;44993.84;5110648;28;20801;-53
2023/06/04 10:04:11;;;;;;;5.67;1.93;;;;;;;-143.84;37.81;44999.56;5110598;28;20989;-54
2023/06/04 10:06:40;;;;;;;8.50;2.20;;;;;;;-143.84;38.26;44990.03;5110436;28;20479;-54
2023/06/04 10:09:10;;;;;;;5.97;2.13;;;;;;;-143.84;36.95;44982.41;5110361;28;20451;-54
2023/06/04 10:11:41;;;;;;;7.33;2.30;;;;;;;-143.84;37.02;44976.72;5110387;28;20933;-54
2023/06/04 10:14:17;;;;;;;8.13;2.40;;;;;;;-143.84;36.80;44971.00;5110296;28;20488;-54
2023/06/04 10:16:45;;;;;;;7.80;2.20;;;;;;;-143.84;37.28;44963.38;5110476;28;20863;-54
2023/06/04 10:19:13;;;;;;;5.43;1.90;;;;;;;-143.84;37.10;44984.31;5109627;28;20849;-54
2023/06/04 10:21:40;;;;;;;3.23;1.70;;;;;;;-143.84;38.01;44982.41;5110073;28;20436;-54
2023/06/04 10:24:09;;;;;;;7.90;2.27;;;;;;;-143.84;38.71;44969.09;5109927;28;20482;-54
2023/06/04 10:26:38;;;;;;;4.50;2.23;;;;;;;-143.84;39.36;44972.91;5109498;28;20455;-54
2023/06/04 10:29:07;;;;;;;7.00;1.70;;;;;;;-143.84;37.50;45005.28;5109438;28;20446;-54
2023/06/04 10:31:34;;;;;;;8.03;1.80;;;;;;;-143.84;38.82;44953.88;5109762;28;20501;-54
2023/06/04 10:34:02;;;;;;;3.57;2.00;;;;;;;-143.84;38.30;44974.81;5109230;28;20447;-54
2023/06/04 10:36:30;;;;;;;9.70;2.60;;;;;;;-143.84;37.80;44980.53;5110199;28;20779;-54
2023/06/04 10:38:57;;;;;;;8.83;2.10;;;;;;;-143.84;37.45;44974.81;5110083;28;20566;-54
2023/06/04 10:41:26;;;;;;;12.77;2.30;;;;;;;-143.84;37.81;44984.31;5110193;28;21231;-54
2023/06/04 10:44:01;;;;;;;9.00;2.33;;;;;;;-143.84;37.80;44965.28;5108698;28;20552;-54
2023/06/04 10:46:39;;;;;;;3.43;1.67;;;;;;;-143.84;37.35;45012.88;5109223;28;20443;-57
2023/06/04 10:49:06;;;;;;;7.77;2.00;;;;;;;-143.84;38.67;44984.31;5110393;28;20441;-58
2023/06/04 10:51:34;;;;;;;14.57;2.80;;;;;;;-143.84;38.69;45016.69;5110069;28;20439;-57
2023/06/04 10:54:03;;;;;;;15.80;2.17;;;;;;;-143.84;38.29;44993.84;5109817;28;20508;-57
2023/06/04 10:56:33;;;;;;;7.57;2.07;;;;;;;-143.84;38.81;44982.41;5109699;28;20450;-57
2023/06/04 10:59:01;;;;;;;8.13;2.03;;;;;;;-143.84;37.88;45007.19;5109390;28;20447;-57
2023/06/04 11:01:30;;;;;;;12.53;1.83;;;;;;;-143.84;38.99;44976.72;5109387;28;20481;-57
2023/06/04 11:03:57;;;;;;;8.20;2.40;;;;;;;-143.84;39.17;44980.53;5107857;28;20542;-57
2023/06/04 11:06:27;;;;;;;7.40;2.17;;;;;;;-143.84;39.30;44991.94;5100508;28;20455;-57
2023/06/04 11:09:05;;;;;;;4.97;2.20;;;;;;;-143.84;38.92;44971.00;5088896;28;20909;-57
2023/06/04 11:11:33;;;;;;;3.40;2.00;;;;;;;-143.84;39.52;44993.84;5089109;28;20440;-57
2023/06/04 11:14:08;;;;;;;5.80;2.10;;;;;;;-143.84;39.89;44974.81;5089002;28;20463;-57
2023/06/04 11:16:36;;;;;;;10.13;2.23;;;;;;;-143.84;40.12;45003.38;5092352;28;20457;-57
2023/06/04 11:19:03;;;;;;;8.93;2.13;;;;;;;-143.84;40.31;45005.28;5100239;28;20431;-57